createdAt,value
2022-12-22T10:05:06.532Z,10.60
2022-12-22T10:10:28.291Z,10.67
2022-12-22T10:31:25.332Z,10.37
2022-12-22T10:36:26.170Z,11.00
2022-12-22T10:41:21.810Z,10.90
2022-12-22T10:46:13.642Z,9.50
2022-12-22T10:51:15.264Z,10.30
2022-12-22T10:56:09.103Z,10.93
2022-12-22T11:01:04.216Z,9.53
2022-12-22T11:05:57.416Z,10.97
2022-12-22T11:11:10.038Z,9.13
2022-12-22T11:16:13.969Z,8.97
2022-12-22T11:21:26.286Z,8.07
2022-12-22T11:26:28.988Z,9.70
2022-12-22T11:31:29.567Z,8.80
2022-12-22T11:36:57.639Z,8.93
2022-12-22T11:42:04.496Z,10.50
2022-12-22T11:47:14.180Z,10.93
2022-12-22T11:52:30.730Z,10.53
2022-12-22T11:57:52.888Z,11.83
2022-12-22T12:02:59.530Z,10.87
2022-12-22T12:07:58.781Z,12.63
2022-12-22T12:13:12.203Z,10.43
2022-12-22T12:18:26.821Z,8.47
2022-12-22T12:23:41.231Z,8.63
2022-12-22T12:28:51.349Z,7.80
2022-12-22T12:33:46.679Z,9.83
2022-12-22T12:39:08.803Z,6.20
2022-12-22T12:44:02.730Z,6.80
2022-12-22T12:48:56.295Z,6.67
2022-12-22T12:54:34.165Z,9.37
2022-12-22T12:59:41.156Z,10.80
2022-12-22T13:05:13.038Z,8.20
2022-12-22T13:10:19.432Z,8.77
2022-12-22T13:15:33.075Z,7.53
2022-12-22T13:20:29.777Z,5.50
2022-12-22T13:25:24.356Z,4.93
2022-12-22T13:30:19.537Z,6.40
2022-12-22T13:35:33.149Z,4.90
2022-12-22T13:40:39.820Z,5.80
2022-12-22T13:45:35.858Z,6.47
2022-12-22T13:50:33.960Z,6.10
2022-12-22T13:55:28.310Z,6.30
2022-12-22T14:00:25.770Z,7.10
2022-12-22T14:05:18.249Z,7.27
2022-12-22T14:10:10.677Z,5.53
2022-12-22T14:15:03.179Z,8.20
2022-12-22T14:19:57.676Z,5.77
2022-12-22T14:24:54.661Z,6.43
2022-12-22T14:29:46.633Z,6.03
2022-12-22T14:34:38.415Z,6.20
2022-12-22T14:39:32.430Z,4.43
2022-12-22T14:44:34.259Z,3.80
2022-12-22T14:49:26.913Z,3.83
2022-12-22T14:54:21.469Z,3.80
2022-12-22T14:59:27.533Z,3.63
2022-12-22T15:04:20.490Z,2.73
2022-12-22T15:09:15.050Z,6.67
2022-12-22T15:14:12.016Z,5.20
2022-12-22T15:19:05.092Z,4.90
2022-12-22T15:23:56.632Z,6.90
2022-12-22T15:28:48.237Z,5.77
2022-12-22T15:33:39.949Z,6.70
2022-12-22T15:38:38.355Z,6.63
2022-12-22T15:43:56.369Z,8.53
2022-12-22T15:48:43.016Z,7.70
2022-12-22T15:53:36.612Z,6.20
2022-12-22T15:58:33.207Z,6.50
2022-12-22T16:03:24.863Z,5.13
2022-12-22T16:08:21.082Z,5.30
2022-12-22T16:13:14.821Z,4.53
2022-12-22T16:18:07.752Z,4.37
2022-12-22T16:22:59.719Z,3.27
2022-12-22T16:27:52.207Z,3.87
2022-12-22T16:32:45.786Z,2.70
2022-12-22T16:37:40.643Z,2.20
2022-12-22T16:47:42.111Z,2.80
2022-12-22T16:52:44.962Z,3.50
2022-12-22T16:57:36.644Z,3.37
2022-12-22T17:02:33.987Z,3.63
2022-12-22T17:07:26.784Z,2.17
2022-12-22T17:12:22.532Z,3.20
2022-12-22T17:17:18.473Z,2.43
2022-12-22T17:22:21.897Z,1.80
2022-12-22T17:27:14.428Z,1.80
2022-12-22T17:32:12.977Z,2.13
2022-12-22T17:37:06.483Z,1.80
2022-12-22T17:41:58.035Z,2.67
2022-12-22T17:46:49.794Z,4.70
2022-12-22T17:51:41.962Z,2.13
2022-12-22T17:56:33.611Z,2.07
2022-12-22T18:01:33.237Z,3.73
2022-12-22T18:06:33.639Z,1.90
2022-12-22T18:11:25.478Z,2.93
2022-12-22T18:16:20.345Z,5.73
2022-12-22T18:21:20.839Z,4.33
2022-12-22T18:26:38.795Z,1.87
2022-12-22T18:31:30.397Z,3.47
2022-12-22T18:36:28.901Z,6.03
2022-12-22T18:41:23.084Z,3.77
2022-12-22T18:46:14.785Z,5.03
2022-12-22T18:51:07.678Z,5.33
2022-12-22T18:55:59.628Z,3.73
2022-12-22T19:00:53.431Z,3.17
2022-12-22T19:05:45.865Z,3.70
2022-12-22T19:10:41.195Z,5.80
2022-12-22T19:15:38.601Z,5.03
2022-12-22T19:20:30.306Z,3.80
2022-12-22T19:25:28.340Z,6.20
2022-12-22T19:30:23.866Z,6.63
2022-12-22T19:35:21.289Z,6.53
2022-12-22T19:40:15.080Z,7.50
2022-12-22T19:45:21.440Z,7.10
2022-12-22T19:50:15.788Z,5.47
2022-12-22T19:55:07.690Z,5.97
2022-12-22T19:59:59.587Z,6.13
2022-12-22T20:04:51.502Z,8.03
2022-12-22T20:09:43.247Z,6.23
2022-12-22T20:14:36.050Z,6.83
2022-12-22T20:19:27.667Z,7.60
2022-12-22T20:24:22.625Z,7.77
2022-12-22T20:29:14.434Z,6.43
2022-12-22T20:34:08.358Z,5.73
2022-12-22T20:39:02.033Z,6.13
2022-12-22T20:43:53.980Z,5.43
2022-12-22T20:48:56.373Z,5.47
2022-12-22T20:53:48.737Z,8.50
2022-12-22T20:58:40.811Z,8.50
2022-12-22T21:03:32.519Z,7.67
2022-12-22T21:08:27.355Z,7.60
2022-12-22T21:13:20.295Z,8.63
2022-12-22T21:18:23.701Z,7.13
2022-12-22T21:23:16.471Z,6.50
2022-12-22T21:28:12.794Z,9.50
2022-12-22T21:33:04.381Z,9.57
2022-12-22T21:37:58.482Z,9.47
2022-12-22T21:42:51.464Z,8.53
2022-12-22T21:47:43.584Z,8.57
2022-12-22T21:52:35.159Z,7.13
2022-12-22T21:57:28.551Z,7.00
2022-12-22T22:02:20.289Z,6.73
2022-12-22T22:07:11.892Z,6.47
2022-12-22T22:12:28.088Z,7.37
2022-12-22T22:17:19.907Z,7.77
2022-12-22T22:22:11.750Z,8.17
2022-12-22T22:27:03.490Z,7.80
2022-12-22T22:31:55.415Z,6.77
2022-12-22T22:36:47.050Z,8.60
2022-12-22T22:41:43.277Z,9.87
2022-12-22T22:46:35.418Z,8.77
2022-12-22T22:51:27.733Z,7.60
2022-12-22T22:56:19.249Z,9.40
2022-12-22T23:01:12.223Z,8.27
2022-12-22T23:06:06.362Z,6.23
2022-12-22T23:11:01.626Z,7.73
2022-12-22T23:16:00.898Z,10.37
2022-12-22T23:20:52.646Z,7.13
2022-12-22T23:25:46.658Z,8.87
2022-12-22T23:30:39.568Z,10.53
2022-12-22T23:35:31.112Z,8.77
2022-12-22T23:40:51.064Z,7.20
2022-12-22T23:45:34.615Z,5.57
2022-12-22T23:50:26.837Z,8.10
2022-12-22T23:55:19.598Z,8.57
